Hodgson, Texas
Current Conditions -  °F | °C
As of 10:15 PM on Thursday 20 Nov 2014 (Local Time) from KOSA Reporting Station
Broken Clouds Broken Clouds  
Wind Chill: 58°   Ceiling: 4800
Heat Index: 58°   Visibility: 10mi
Dew Point: 55°   Wind: 3mph
Humidity: 87%   Direction: 130°SE
Pressure: 30.13"   Gusts: NA
Location:  33.4703°N, 94.6281°W
Report Text: KOSA 210415Z AUTO 13003KT 10SM SCT039 BKN048 BKN065 15/13 A3013 RMK AO1 T01470125
Loading
Personal Weather Stations






























Interactive Weather Map New forecast layout! Learn more

10-Day Weather Forecast

Advertisements
Track Severe Weather on mobile